Time;durP1;ratioP1;P1;durP2;ratioP2;P2;SDS_P1;SDS_P2;PMS_P1;PMS_P2;Temp;Humidity;BMP_temperature;BMP_pressure;BME280_temperature;BME280_humidity;BME280_pressure;Samples;Min_cycle;Max_cycle;Signal;HPM_P1;HPM_P2
2022/01/02 00:00:04;;;;;;;10.23;5.43;;;;;;;9.31;100.00;101084.88;5072727;28;20044;-72
2022/01/02 00:02:34;;;;;;;8.57;5.28;;;;;;;9.37;100.00;101083.78;5072562;28;20122;-72
2022/01/02 00:05:05;;;;;;;11.20;5.93;;;;;;;9.44;100.00;101079.88;5072484;28;20436;-72
2022/01/02 00:07:36;;;;;;;9.45;6.03;;;;;;;9.27;100.00;101075.28;5072451;28;20515;-72
2022/01/02 00:10:06;;;;;;;10.85;6.00;;;;;;;9.38;100.00;101078.38;5071695;28;20378;-72
2022/01/02 00:12:40;;;;;;;11.10;5.80;;;;;;;9.44;100.00;101087.88;5072318;28;20071;-72
2022/01/02 00:15:09;;;;;;;12.07;6.13;;;;;;;9.28;100.00;101082.34;5072481;28;20040;-75
2022/01/02 00:17:39;;;;;;;11.05;6.00;;;;;;;9.38;100.00;101074.84;5072407;28;20086;-72
2022/01/02 00:20:12;;;;;;;9.73;5.70;;;;;;;9.42;100.00;101079.09;5072401;28;20070;-72
2022/01/02 00:22:42;;;;;;;11.55;6.20;;;;;;;9.34;100.00;101065.22;5072146;28;20090;-72
2022/01/02 00:25:15;;;;;;;9.70;5.63;;;;;;;9.31;100.00;101076.03;5072204;28;20371;-72
2022/01/02 00:27:45;;;;;;;9.30;5.75;;;;;;;9.26;100.00;101081.53;5072086;28;20075;-73
2022/01/02 00:30:14;;;;;;;11.73;6.22;;;;;;;9.21;100.00;101083.53;5072012;28;20040;-71
2022/01/02 00:32:44;;;;;;;12.05;6.25;;;;;;;9.17;100.00;101082.81;5072509;28;20072;-71
2022/01/02 00:35:12;;;;;;;10.05;6.00;;;;;;;9.11;100.00;101085.69;5071970;28;20118;-72
2022/01/02 00:37:41;;;;;;;11.73;6.55;;;;;;;8.99;100.00;101093.31;5072345;28;20041;-71
2022/01/02 00:40:10;;;;;;;10.32;6.35;;;;;;;9.12;100.00;101100.75;5072210;28;20497;-71
2022/01/02 00:42:42;;;;;;;9.93;6.53;;;;;;;9.10;100.00;101099.06;5071989;28;20053;-72
2022/01/02 00:45:19;;;;;;;12.02;6.53;;;;;;;9.13;100.00;101094.47;5072236;28;20056;-72
2022/01/02 00:47:53;;;;;;;10.75;6.05;;;;;;;9.00;100.00;101093.25;5072001;28;20048;-72
2022/01/02 00:50:28;;;;;;;11.18;6.43;;;;;;;9.02;100.00;101093.19;5071835;28;20044;-72
2022/01/02 00:52:59;;;;;;;11.10;6.28;;;;;;;9.02;100.00;101083.41;5072322;28;20458;-72
2022/01/02 00:55:30;;;;;;;14.15;6.80;;;;;;;8.96;100.00;101093.44;5071536;28;20040;-74
2022/01/02 00:58:01;;;;;;;10.93;6.22;;;;;;;8.87;100.00;101082.22;5071940;28;20045;-73
2022/01/02 01:00:33;;;;;;;11.02;6.13;;;;;;;8.98;100.00;101099.59;5071306;28;20062;-73
2022/01/02 01:03:07;;;;;;;10.45;6.13;;;;;;;8.96;100.00;101096.09;5071982;28;20052;-71
2022/01/02 01:05:37;;;;;;;10.63;6.18;;;;;;;8.94;100.00;101095.28;5071863;28;20044;-71
2022/01/02 01:08:07;;;;;;;10.55;6.00;;;;;;;8.92;100.00;101089.16;5072057;28;20371;-71
2022/01/02 01:10:38;;;;;;;11.68;6.47;;;;;;;8.96;100.00;101091.63;5071579;28;20052;-71
2022/01/02 01:13:09;;;;;;;11.00;6.28;;;;;;;9.03;100.00;101082.47;5071986;28;20430;-71
2022/01/02 01:15:39;;;;;;;10.90;6.15;;;;;;;8.95;100.00;101079.25;5071271;28;20051;-71
2022/01/02 01:18:07;;;;;;;9.32;5.82;;;;;;;8.96;100.00;101081.00;5071804;28;20037;-70
2022/01/02 01:20:40;;;;;;;12.13;6.28;;;;;;;9.00;100.00;101082.63;5072740;28;20478;-70
2022/01/02 01:23:11;;;;;;;14.27;6.93;;;;;;;9.02;100.00;101072.75;5075394;28;20051;-71
2022/01/02 01:25:45;;;;;;;13.00;7.07;;;;;;;8.88;100.00;101080.47;5075455;28;20041;-71
2022/01/02 01:28:15;;;;;;;13.60;6.80;;;;;;;8.94;100.00;101076.66;5075250;28;20040;-74
2022/01/02 01:30:45;;;;;;;10.13;6.38;;;;;;;8.90;100.00;101078.59;5075432;28;20492;-71
2022/01/02 01:33:13;;;;;;;10.23;6.68;;;;;;;8.76;100.00;101072.94;5075520;28;20051;-70
2022/01/02 01:35:42;;;;;;;12.95;6.93;;;;;;;8.68;100.00;101073.22;5074983;28;20068;-71
2022/01/02 01:38:11;;;;;;;13.90;7.32;;;;;;;8.73;100.00;101078.38;5073639;28;20102;-70
2022/01/02 01:40:45;;;;;;;10.55;6.20;;;;;;;8.69;100.00;101072.34;5074892;28;20082;-70
2022/01/02 01:43:14;;;;;;;12.02;6.32;;;;;;;8.64;100.00;101066.31;5075038;28;20090;-71
2022/01/02 01:45:44;;;;;;;10.93;6.53;;;;;;;8.66;100.00;101066.25;5075352;28;20040;-70
2022/01/02 01:48:12;;;;;;;14.45;7.13;;;;;;;8.69;100.00;101067.03;5074809;28;20044;-71
2022/01/02 01:50:43;;;;;;;12.90;7.00;;;;;;;8.74;100.00;101064.16;5074933;28;20090;-70
2022/01/02 01:53:11;;;;;;;12.13;6.70;;;;;;;8.71;100.00;101074.94;5075265;28;20155;-71
2022/01/02 01:55:40;;;;;;;12.50;6.75;;;;;;;8.75;100.00;101072.06;5074651;28;20079;-71
2022/01/02 01:58:08;;;;;;;11.20;6.20;;;;;;;8.71;100.00;101070.47;5074430;28;20063;-71
2022/01/02 02:00:36;;;;;;;11.98;6.32;;;;;;;8.72;100.00;101074.00;5074489;28;20083;-72
2022/01/02 02:03:06;;;;;;;11.10;6.55;;;;;;;8.66;100.00;101060.94;5074805;28;20044;-72
2022/01/02 02:05:35;;;;;;;13.40;6.63;;;;;;;8.69;100.00;101058.16;5074389;28;20059;-72
2022/01/02 02:08:03;;;;;;;10.82;6.75;;;;;;;8.70;100.00;101066.09;5074395;28;20170;-72
2022/01/02 02:10:38;;;;;;;10.52;6.63;;;;;;;8.61;100.00;101063.78;5074641;28;20044;-72
2022/01/02 02:13:07;;;;;;;12.55;7.00;;;;;;;8.61;100.00;101055.81;5074706;28;20044;-72
2022/01/02 02:15:37;;;;;;;11.15;6.20;;;;;;;8.58;100.00;101064.75;5074232;28;20040;-72
2022/01/02 02:18:07;;;;;;;10.98;6.55;;;;;;;8.62;100.00;101062.00;5074781;28;20056;-71
2022/01/02 02:20:37;;;;;;;11.27;6.60;;;;;;;8.55;100.00;101066.69;5074151;28;20151;-72
2022/01/02 02:23:08;;;;;;;13.13;7.07;;;;;;;8.52;100.00;101067.66;5074349;28;20044;-71
2022/01/02 02:25:39;;;;;;;12.75;6.82;;;;;;;8.50;100.00;101061.56;5074060;28;20048;-71
2022/01/02 02:28:10;;;;;;;13.77;6.80;;;;;;;8.46;100.00;101062.56;5074291;28;20059;-71
2022/01/02 02:30:40;;;;;;;10.75;6.80;;;;;;;8.44;100.00;101056.47;5074011;28;20056;-71
2022/01/02 02:33:09;;;;;;;12.32;6.65;;;;;;;8.52;100.00;101059.69;5073422;28;20127;-71
2022/01/02 02:35:41;;;;;;;12.40;6.68;;;;;;;8.55;100.00;101059.56;5073746;28;20051;-71
2022/01/02 02:38:11;;;;;;;11.50;6.65;;;;;;;8.33;100.00;101048.00;5074128;28;20045;-71
2022/01/02 02:40:40;;;;;;;13.85;6.88;;;;;;;8.32;100.00;101044.47;5073520;28;20044;-71
2022/01/02 02:43:23;;;;;;;15.13;6.88;;;;;;;8.32;100.00;101046.28;5073993;28;20053;-71
2022/01/02 02:51:32;;;;;;;12.65;6.72;;;;;;;8.30;100.00;101040.16;5073159;28;20033;-71
2022/01/02 02:54:00;;;;;;;12.43;7.03;;;;;;;8.16;100.00;101038.00;5073887;28;20048;-71
2022/01/02 02:56:40;;;;;;;13.70;7.15;;;;;;;8.05;100.00;101037.53;5072856;28;20041;-71
2022/01/02 02:59:10;;;;;;;14.27;7.30;;;;;;;8.12;100.00;101043.50;5073606;28;20040;-71
2022/01/02 03:01:39;;;;;;;12.48;6.60;;;;;;;8.11;100.00;101039.13;5073209;28;20049;-71
2022/01/02 03:04:10;;;;;;;11.98;6.95;;;;;;;8.11;100.00;101041.78;5073171;28;20036;-71
2022/01/02 03:06:40;;;;;;;12.57;6.82;;;;;;;8.25;100.00;101047.41;5073188;28;20074;-71
2022/01/02 03:09:10;;;;;;;13.13;6.88;;;;;;;8.27;100.00;101040.25;5073611;28;20052;-71
2022/01/02 03:11:40;;;;;;;11.15;6.47;;;;;;;8.20;100.00;101036.09;5072844;28;20049;-71
2022/01/02 03:14:09;;;;;;;11.95;6.65;;;;;;;8.15;100.00;101038.94;5073161;28;20075;-70
2022/01/02 03:16:39;;;;;;;12.68;6.93;;;;;;;8.06;100.00;101038.41;5072979;28;20048;-71
2022/01/02 03:19:08;;;;;;;14.07;7.20;;;;;;;7.95;100.00;101037.00;5073283;28;20040;-71
2022/01/02 03:21:36;;;;;;;13.02;7.25;;;;;;;7.84;100.00;101039.19;5072935;28;20048;-71
2022/01/02 03:24:06;;;;;;;11.43;6.90;;;;;;;7.73;100.00;101036.06;5072824;28;20067;-71
2022/01/02 03:26:34;;;;;;;13.00;7.65;;;;;;;7.61;100.00;101031.19;5072554;28;20048;-71
2022/01/02 03:29:02;;;;;;;14.50;7.47;;;;;;;7.53;100.00;101028.81;5073227;28;20478;-71
2022/01/02 03:31:31;;;;;;;12.43;6.97;;;;;;;7.49;100.00;101026.31;5072796;28;20041;-71
2022/01/02 03:34:00;;;;;;;14.15;7.90;;;;;;;7.47;100.00;101026.38;5072844;28;20044;-72
2022/01/02 03:36:28;;;;;;;17.23;7.90;;;;;;;7.45;100.00;101021.13;5072355;28;20493;-72
2022/01/02 03:38:56;;;;;;;14.02;7.28;;;;;;;7.51;100.00;101027.13;5072843;28;20047;-72
2022/01/02 03:41:26;;;;;;;13.68;7.22;;;;;;;7.58;100.00;101031.28;5072672;28;20037;-72
2022/01/02 03:43:54;;;;;;;12.23;7.15;;;;;;;7.59;100.00;101027.72;5072131;28;20430;-72
2022/01/02 03:46:22;;;;;;;11.57;6.70;;;;;;;7.60;100.00;101013.50;5072883;28;20405;-73
2022/01/02 03:48:51;;;;;;;12.85;6.95;;;;;;;7.60;100.00;101024.13;5072580;28;20036;-72
2022/01/02 03:51:19;;;;;;;15.48;8.15;;;;;;;7.49;100.00;101018.34;5072698;28;20048;-72
2022/01/02 03:53:47;;;;;;;12.75;7.00;;;;;;;7.59;100.00;101022.41;5072688;28;20537;-71
2022/01/02 03:56:15;;;;;;;13.50;7.50;;;;;;;7.57;100.00;101018.94;5072778;28;20037;-72
2022/01/02 03:58:45;;;;;;;11.80;7.65;;;;;;;7.61;100.00;101013.47;5072960;28;20055;-72
2022/01/02 04:01:13;;;;;;;14.10;7.22;;;;;;;7.55;100.00;101015.47;5072614;28;20105;-71
2022/01/02 04:03:42;;;;;;;11.75;7.25;;;;;;;7.51;100.00;101014.72;5072313;28;20036;-71
2022/01/02 04:06:10;;;;;;;12.68;7.55;;;;;;;7.56;100.00;101006.59;5073086;28;20044;-71
2022/01/02 04:08:38;;;;;;;15.65;8.55;;;;;;;7.57;100.00;101003.00;5072317;28;20040;-71
2022/01/02 04:11:06;;;;;;;15.25;9.10;;;;;;;7.48;100.00;101001.56;5072189;28;20051;-70
2022/01/02 04:13:35;;;;;;;17.33;9.57;;;;;;;7.39;100.00;101008.06;5072444;28;20469;-70
2022/01/02 04:16:04;;;;;;;14.30;8.95;;;;;;;7.15;100.00;101012.44;5072608;28;20075;-71
2022/01/02 04:18:33;;;;;;;16.15;9.32;;;;;;;7.05;100.00;101005.69;5072140;28;20389;-71
2022/01/02 04:21:01;;;;;;;17.33;9.75;;;;;;;6.99;100.00;101016.50;5072392;28;20473;-70
2022/01/02 04:23:29;;;;;;;19.10;9.23;;;;;;;6.91;100.00;101009.72;5071775;28;20593;-72
2022/01/02 04:25:57;;;;;;;15.23;9.25;;;;;;;6.86;100.00;101021.34;5072547;28;20416;-71
2022/01/02 04:28:25;;;;;;;16.25;9.32;;;;;;;6.66;100.00;101026.44;5072493;28;20044;-73
2022/01/02 04:30:53;;;;;;;19.60;9.80;;;;;;;6.55;100.00;101025.88;5072118;28;20040;-71
2022/01/02 04:33:23;;;;;;;16.63;9.23;;;;;;;6.41;100.00;101028.97;5072110;28;20064;-71
2022/01/02 04:35:51;;;;;;;14.60;9.25;;;;;;;6.27;100.00;101032.06;5072632;28;20397;-71
2022/01/02 04:38:20;;;;;;;15.75;9.27;;;;;;;6.20;100.00;101030.50;5072040;28;20052;-71
2022/01/02 04:40:49;;;;;;;15.80;9.55;;;;;;;6.32;100.00;101035.41;5071487;28;20052;-71
2022/01/02 04:43:17;;;;;;;17.63;9.90;;;;;;;6.25;100.00;101039.16;5072374;28;20078;-71
2022/01/02 04:45:45;;;;;;;16.60;10.00;;;;;;;6.41;100.00;101039.56;5071912;28;20128;-71
2022/01/02 04:48:13;;;;;;;15.73;9.50;;;;;;;6.36;100.00;101035.31;5071965;28;20494;-71
2022/01/02 04:50:43;;;;;;;17.98;9.02;;;;;;;6.43;100.00;101028.91;5071603;28;20087;-71
2022/01/02 04:53:11;;;;;;;18.77;10.20;;;;;;;6.46;100.00;101029.69;5072278;28;20041;-71
2022/01/02 04:55:40;;;;;;;18.20;9.70;;;;;;;6.37;100.00;101027.34;5073271;28;20045;-71
2022/01/02 04:58:08;;;;;;;18.38;10.02;;;;;;;6.25;100.00;101025.91;5076025;28;20056;-71
2022/01/02 05:00:36;;;;;;;17.33;9.85;;;;;;;6.31;100.00;101025.72;5075616;28;20469;-71
2022/01/02 05:03:04;;;;;;;16.70;9.60;;;;;;;6.25;100.00;101028.56;5075908;28;20044;-70
2022/01/02 05:05:33;;;;;;;18.95;10.20;;;;;;;6.12;100.00;101021.03;5075585;28;20051;-71
2022/01/02 05:08:03;;;;;;;20.60;10.65;;;;;;;6.02;100.00;101021.31;5075553;28;20051;-70
2022/01/02 05:10:31;;;;;;;17.15;9.93;;;;;;;5.99;100.00;101020.53;5075544;28;20045;-71
2022/01/02 05:13:00;;;;;;;16.55;9.82;;;;;;;6.13;100.00;101007.75;5075797;28;20043;-70
2022/01/02 05:15:28;;;;;;;18.63;9.80;;;;;;;6.08;100.00;101016.72;5075610;28;20485;-70
2022/01/02 05:17:56;;;;;;;16.67;9.95;;;;;;;5.99;100.00;101015.25;5075795;28;20440;-70
2022/01/02 05:20:24;;;;;;;16.23;10.55;;;;;;;5.91;100.00;101011.94;5075557;28;20128;-70
2022/01/02 05:22:52;;;;;;;16.73;10.50;;;;;;;5.97;100.00;101004.66;5075419;28;20041;-70
2022/01/02 05:25:22;;;;;;;18.95;10.82;;;;;;;6.15;100.00;101010.34;5075516;28;20362;-70
2022/01/02 05:27:50;;;;;;;17.75;9.60;;;;;;;6.07;100.00;101018.50;5075057;28;20041;-70
2022/01/02 05:30:21;;;;;;;17.42;10.45;;;;;;;5.84;100.00;101013.84;5075563;28;20052;-70
2022/01/02 05:32:50;;;;;;;17.92;11.13;;;;;;;5.72;100.00;101017.72;5075060;28;21030;-70
2022/01/02 05:35:18;;;;;;;20.77;11.27;;;;;;;5.82;100.00;101012.16;5075142;28;20494;-70
2022/01/02 05:37:46;;;;;;;20.35;11.43;;;;;;;5.86;100.00;101008.50;5075228;28;20044;-70
2022/01/02 05:40:14;;;;;;;23.38;12.82;;;;;;;5.81;100.00;101006.00;5074831;28;20517;-70
2022/01/02 05:42:45;;;;;;;23.88;12.65;;;;;;;5.76;100.00;101013.19;5074881;28;20420;-70
2022/01/02 05:45:13;;;;;;;21.30;12.05;;;;;;;5.77;100.00;101014.06;5075325;28;20044;-70
2022/01/02 05:47:42;;;;;;;22.63;12.48;;;;;;;5.85;100.00;101014.72;5074886;28;20486;-71
2022/01/02 05:50:10;;;;;;;19.10;11.30;;;;;;;6.06;100.00;101000.88;5074847;28;20049;-71
2022/01/02 05:52:38;;;;;;;22.83;12.15;;;;;;;5.90;100.00;101004.88;5074882;28;20047;-71
2022/01/02 05:55:07;;;;;;;18.35;11.38;;;;;;;5.68;100.00;101005.47;5075153;28;20040;-70
2022/01/02 05:57:36;;;;;;;20.90;12.45;;;;;;;5.57;100.00;101001.38;5074548;28;20459;-71
2022/01/02 06:00:07;;;;;;;19.00;12.25;;;;;;;5.62;100.00;100997.72;5074917;28;20362;-71
2022/01/02 06:02:36;;;;;;;19.65;11.77;;;;;;;5.74;100.00;101004.44;5074406;28;20045;-71
2022/01/02 06:05:06;;;;;;;19.75;11.95;;;;;;;5.85;100.00;101004.13;5074860;28;20044;-71
2022/01/02 06:07:35;;;;;;;22.83;10.98;;;;;;;5.69;100.00;101004.59;5073640;28;20398;-72
2022/01/02 06:10:05;;;;;;;23.60;11.82;;;;;;;5.68;100.00;101008.13;5074771;28;20543;-71
2022/01/02 06:12:33;;;;;;;19.95;11.45;;;;;;;5.66;100.00;101001.13;5074351;28;20055;-73
2022/01/02 06:15:02;;;;;;;19.15;11.07;;;;;;;5.58;100.00;101008.41;5074513;28;20067;-71
2022/01/02 06:17:31;;;;;;;19.80;11.15;;;;;;;5.54;100.00;100998.84;5074165;28;20049;-71
2022/01/02 06:19:59;;;;;;;16.15;10.48;;;;;;;5.54;100.00;100997.06;5074217;28;20469;-71
2022/01/02 06:22:27;;;;;;;15.32;9.52;;;;;;;5.48;100.00;100989.28;5074440;28;20128;-70
2022/01/02 06:24:56;;;;;;;16.27;10.15;;;;;;;5.43;100.00;100993.84;5073699;28;20464;-71
2022/01/02 06:27:24;;;;;;;19.02;10.15;;;;;;;5.35;100.00;101001.13;5074407;28;20033;-71
2022/01/02 06:29:52;;;;;;;20.13;10.52;;;;;;;5.26;100.00;100996.94;5073997;28;20500;-71
2022/01/02 06:32:20;;;;;;;16.23;10.25;;;;;;;5.16;100.00;101000.72;5073913;28;20049;-71
2022/01/02 06:34:50;;;;;;;16.95;9.25;;;;;;;5.14;100.00;101003.41;5073843;28;20072;-70
2022/01/02 06:37:18;;;;;;;14.45;8.90;;;;;;;5.05;100.00;101003.66;5074229;28;20040;-71
2022/01/02 06:39:46;;;;;;;13.85;8.60;;;;;;;5.11;100.00;101008.75;5073796;28;20127;-71
2022/01/02 06:42:14;;;;;;;17.08;9.85;;;;;;;5.11;100.00;101006.13;5073884;28;20102;-71
2022/01/02 06:44:42;;;;;;;17.77;9.50;;;;;;;5.04;100.00;101007.22;5073569;28;20040;-71
2022/01/02 06:47:10;;;;;;;16.10;10.00;;;;;;;4.93;100.00;101009.25;5073831;28;20052;-71
2022/01/02 06:49:40;;;;;;;16.63;9.68;;;;;;;5.01;100.00;101012.56;5073526;28;20053;-71
2022/01/02 06:52:10;;;;;;;16.08;10.10;;;;;;;4.96;100.00;101009.16;5074038;28;20043;-71
2022/01/02 06:54:40;;;;;;;16.58;9.13;;;;;;;4.82;100.00;101008.63;5072119;28;20052;-72
2022/01/02 06:57:08;;;;;;;18.25;10.77;;;;;;;4.59;100.00;101012.69;5072159;28;20057;-71
2022/01/02 06:59:36;;;;;;;18.08;10.27;;;;;;;4.48;100.00;101020.00;5074491;28;20435;-73
2022/01/02 07:02:05;;;;;;;18.08;11.15;;;;;;;4.37;100.00;101019.41;5073570;28;20440;-71
2022/01/02 07:04:36;;;;;;;20.95;12.60;;;;;;;4.34;100.00;101008.00;5073506;28;20047;-71
2022/01/02 07:07:04;;;;;;;19.63;10.75;;;;;;;4.48;100.00;101016.50;5073762;28;20048;-71
2022/01/02 07:09:34;;;;;;;17.83;10.40;;;;;;;4.66;100.00;101023.13;5073578;28;20045;-71
2022/01/02 07:12:03;;;;;;;17.20;9.95;;;;;;;4.72;100.00;101015.03;5072462;28;20052;-72
2022/01/02 07:14:33;;;;;;;20.30;11.45;;;;;;;4.69;100.00;101028.34;5073588;28;20496;-70
2022/01/02 07:17:02;;;;;;;19.10;11.25;;;;;;;4.59;100.00;101025.03;5072195;28;20044;-71
2022/01/02 07:19:31;;;;;;;20.35;12.25;;;;;;;4.66;100.00;101031.06;5072274;28;20120;-71
2022/01/02 07:22:00;;;;;;;19.08;11.70;;;;;;;4.62;100.00;101022.31;5072848;28;20037;-71
2022/01/02 07:24:28;;;;;;;22.50;12.18;;;;;;;4.58;100.00;101024.19;5072996;28;20062;-71
2022/01/02 07:26:58;;;;;;;22.35;13.07;;;;;;;4.67;100.00;101032.81;5072562;28;20056;-71
2022/01/02 07:29:26;;;;;;;17.52;10.88;;;;;;;4.72;100.00;101026.47;5073343;28;20044;-70
2022/01/02 07:31:55;;;;;;;17.50;10.82;;;;;;;4.91;100.00;101026.03;5072722;28;20040;-70
2022/01/02 07:34:23;;;;;;;18.95;11.52;;;;;;;4.96;100.00;101022.41;5073125;28;20048;-71
2022/01/02 07:36:51;;;;;;;20.85;11.77;;;;;;;4.97;100.00;101013.56;5072367;28;20132;-71
2022/01/02 07:39:19;;;;;;;19.60;11.38;;;;;;;5.06;100.00;101021.25;5073067;28;20044;-70
2022/01/02 07:41:48;;;;;;;20.10;11.90;;;;;;;5.09;100.00;101017.66;5072317;28;20123;-71
2022/01/02 07:44:18;;;;;;;21.45;11.25;;;;;;;5.23;100.00;101027.91;5072933;28;20048;-70
2022/01/02 07:46:46;;;;;;;19.27;11.65;;;;;;;5.27;100.00;101013.66;5072365;28;20136;-71
2022/01/02 07:49:14;;;;;;;18.02;11.00;;;;;;;5.27;100.00;101009.25;5072860;28;20167;-71
2022/01/02 07:51:42;;;;;;;19.90;11.32;;;;;;;5.36;100.00;101008.13;5072345;28;20401;-71
2022/01/02 07:54:12;;;;;;;20.98;11.65;;;;;;;5.31;100.00;101004.75;5072699;28;20036;-70
2022/01/02 07:56:41;;;;;;;17.65;10.70;;;;;;;5.25;100.00;100989.91;5072243;28;20458;-74
2022/01/02 07:59:09;;;;;;;20.55;10.73;;;;;;;5.34;100.00;101009.97;5072339;28;20401;-72
2022/01/02 08:01:39;;;;;;;19.13;11.00;;;;;;;5.22;100.00;101018.22;5072393;28;20037;-72
2022/01/02 08:04:07;;;;;;;20.35;10.90;;;;;;;5.16;100.00;100998.94;5072719;28;20056;-72
2022/01/02 08:06:36;;;;;;;18.80;10.93;;;;;;;5.12;100.00;100993.78;5072589;28;20390;-72
2022/01/02 08:09:04;;;;;;;18.17;10.35;;;;;;;5.22;100.00;100994.44;5072304;28;20048;-72
2022/01/02 08:11:32;;;;;;;22.67;11.20;;;;;;;5.22;100.00;100992.66;5072091;28;20044;-71
2022/01/02 08:14:16;;;;;;;20.80;10.43;;;;;;;5.35;100.00;100979.94;5072212;28;20091;-70
2022/01/02 08:16:46;;;;;;;18.05;10.98;;;;;;;5.40;100.00;100973.63;5072211;28;20470;-71
2022/01/02 08:19:15;;;;;;;17.95;10.30;;;;;;;5.40;100.00;100971.00;5072399;28;20041;-71
2022/01/02 08:21:43;;;;;;;18.55;9.95;;;;;;;5.37;100.00;100975.47;5072097;28;20135;-72
2022/01/02 08:24:11;;;;;;;21.30;10.85;;;;;;;5.25;100.00;100976.69;5072483;28;20052;-71
2022/01/02 08:26:39;;;;;;;20.77;11.60;;;;;;;5.13;100.00;100980.53;5072417;28;20043;-71
2022/01/02 08:29:11;;;;;;;21.52;12.23;;;;;;;5.13;100.00;100985.81;5072748;28;20108;-71
2022/01/02 08:31:40;;;;;;;22.88;12.65;;;;;;;5.22;100.00;100979.41;5075564;28;20037;-71
2022/01/02 08:34:10;;;;;;;24.27;12.95;;;;;;;5.40;100.00;100978.03;5076478;28;20055;-71
2022/01/02 08:36:38;;;;;;;19.85;11.95;;;;;;;5.36;100.00;100979.03;5076275;28;20135;-71
2022/01/02 08:39:06;;;;;;;16.85;10.65;;;;;;;5.41;100.00;100974.50;5076133;28;20081;-72
2022/01/02 08:41:34;;;;;;;19.45;11.63;;;;;;;5.60;100.00;100970.44;5076436;28;20056;-72
2022/01/02 08:44:03;;;;;;;21.77;11.80;;;;;;;5.78;100.00;100976.09;5075870;28;20040;-72
2022/01/02 08:46:31;;;;;;;19.75;11.68;;;;;;;5.77;100.00;100977.00;5079423;28;20052;-71
2022/01/02 08:48:59;;;;;;;20.13;11.75;;;;;;;5.80;100.00;100966.34;5075471;28;20381;-72
2022/01/02 08:51:29;;;;;;;19.50;11.95;;;;;;;5.89;100.00;100960.78;5074578;28;20048;-75
2022/01/02 08:53:58;;;;;;;21.15;12.27;;;;;;;5.91;100.00;100951.03;5075516;28;20045;-75
2022/01/02 08:56:26;;;;;;;19.42;12.55;;;;;;;5.97;100.00;100959.66;5075734;28;20482;-71
2022/01/02 08:58:54;;;;;;;20.73;12.48;;;;;;;6.05;100.00;100971.81;5076201;28;20411;-73
2022/01/02 09:01:22;;;;;;;20.42;11.88;;;;;;;6.04;100.00;100957.69;5074378;28;20048;-73
2022/01/02 09:03:50;;;;;;;20.58;12.57;;;;;;;6.16;100.00;100944.06;5075192;28;20490;-72
2022/01/02 09:06:19;;;;;;;22.20;11.93;;;;;;;6.36;100.00;100939.91;5075381;28;20362;-72
2022/01/02 09:08:48;;;;;;;18.67;12.20;;;;;;;6.47;100.00;100945.78;5075028;28;20123;-73
2022/01/02 09:11:16;;;;;;;20.58;12.50;;;;;;;6.50;100.00;100949.19;5075195;28;20044;-76
2022/01/02 09:13:44;;;;;;;20.33;12.73;;;;;;;6.51;100.00;100952.69;5074790;28;20036;-73
2022/01/02 09:16:13;;;;;;;20.63;12.30;;;;;;;6.61;100.00;100951.47;5075182;28;20045;-73
2022/01/02 09:18:41;;;;;;;18.75;12.70;;;;;;;6.72;100.00;100949.34;5075394;28;20047;-73
2022/01/02 09:21:09;;;;;;;21.98;13.77;;;;;;;6.85;100.00;100939.16;5075247;28;20363;-71
2022/01/02 09:23:38;;;;;;;20.70;13.15;;;;;;;6.94;100.00;100932.69;5075408;28;20048;-70
2022/01/02 09:26:07;;;;;;;22.55;13.10;;;;;;;7.02;100.00;100944.78;5075021;28;20040;-71
2022/01/02 09:28:35;;;;;;;21.52;13.00;;;;;;;7.08;100.00;100941.91;5075123;28;20511;-71
2022/01/02 09:31:03;;;;;;;22.00;13.32;;;;;;;7.12;100.00;100946.19;5074820;28;20067;-72
2022/01/02 09:33:32;;;;;;;21.55;12.85;;;;;;;7.14;100.00;100949.69;5074771;28;20097;-70
2022/01/02 09:36:01;;;;;;;19.60;12.63;;;;;;;7.19;100.00;100952.16;5072904;28;20052;-69
2022/01/02 09:38:29;;;;;;;19.08;12.50;;;;;;;7.21;100.00;100947.66;5074434;28;20037;-69
2022/01/02 09:40:59;;;;;;;21.30;12.75;;;;;;;7.27;100.00;100944.78;5073464;28;20048;-70
2022/01/02 09:43:28;;;;;;;19.73;12.38;;;;;;;7.29;100.00;100924.38;5072888;28;20041;-71
2022/01/02 09:45:57;;;;;;;20.98;12.27;;;;;;;7.36;100.00;100915.28;5073785;28;20052;-70
2022/01/02 09:48:27;;;;;;;21.77;11.60;;;;;;;7.49;100.00;100915.69;5074294;28;20044;-69
2022/01/02 09:50:56;;;;;;;18.52;11.95;;;;;;;7.56;100.00;100908.38;5074078;28;20064;-70
2022/01/02 09:53:24;;;;;;;20.08;12.57;;;;;;;7.66;100.00;100904.44;5074415;28;20354;-70
2022/01/02 09:55:56;;;;;;;19.08;11.43;;;;;;;7.89;100.00;100900.91;5073842;28;20072;-70
2022/01/02 09:58:26;;;;;;;17.38;11.43;;;;;;;7.94;100.00;100899.81;5074540;28;20090;-70
2022/01/02 10:00:56;;;;;;;19.48;11.73;;;;;;;8.00;100.00;100888.91;5073929;28;20048;-70
2022/01/02 10:03:24;;;;;;;18.33;11.13;;;;;;;8.11;100.00;100874.38;5074093;28;20041;-71
2022/01/02 10:05:56;;;;;;;18.02;11.20;;;;;;;8.22;100.00;100869.47;5074039;28;20124;-70
2022/01/02 10:08:27;;;;;;;18.88;11.05;;;;;;;8.26;100.00;100873.72;5074102;28;20474;-70
2022/01/02 10:11:03;;;;;;;16.75;11.02;;;;;;;8.28;100.00;100874.53;5073861;28;20041;-70
2022/01/02 10:13:40;;;;;;;20.83;10.43;;;;;;;8.38;100.00;100875.91;5073502;28;20385;-71
2022/01/02 10:16:32;;;;;;;17.67;11.07;;;;;;;8.39;100.00;100867.00;5071399;28;20047;-71
2022/01/02 10:19:16;;;;;;;20.58;11.35;;;;;;;8.49;100.00;100857.75;5073134;28;20045;-72
2022/01/02 10:21:54;;;;;;;22.02;12.20;;;;;;;8.66;100.00;100864.13;5074271;28;20152;-71
2022/01/02 10:24:24;;;;;;;21.27;12.50;;;;;;;8.70;100.00;100860.44;5073490;28;20044;-71
2022/01/02 10:27:11;;;;;;;21.48;11.30;;;;;;;8.74;100.00;100856.69;5074058;28;20059;-72
2022/01/02 10:29:45;;;;;;;18.77;11.93;;;;;;;8.87;100.00;100852.56;5074271;28;20084;-71
2022/01/02 10:32:34;;;;;;;18.45;11.50;;;;;;;9.00;100.00;100855.56;5073572;28;20062;-70
2022/01/02 10:35:11;;;;;;;17.73;10.82;;;;;;;8.95;100.00;100839.78;5073828;28;20037;-70
2022/01/02 10:37:40;;;;;;;15.15;9.85;;;;;;;9.09;100.00;100826.75;5073801;28;20448;-70
2022/01/02 10:40:29;;;;;;;17.02;9.88;;;;;;;9.15;100.00;100815.81;5073118;28;20111;-70
2022/01/02 10:42:59;;;;;;;15.68;9.65;;;;;;;9.13;100.00;100793.72;5073247;28;20040;-70
2022/01/02 10:45:32;;;;;;;19.55;10.93;;;;;;;9.15;100.00;100801.63;5073495;28;20049;-70
2022/01/02 10:48:02;;;;;;;15.02;9.50;;;;;;;9.08;100.00;100790.44;5072967;28;20036;-70
2022/01/02 10:50:37;;;;;;;14.38;9.10;;;;;;;9.01;100.00;100791.63;5073109;28;20098;-69
2022/01/02 10:53:13;;;;;;;15.10;8.90;;;;;;;9.12;100.00;100792.00;5072372;28;20094;-70
2022/01/02 10:55:44;;;;;;;14.38;8.32;;;;;;;9.30;100.00;100792.09;5072689;28;20043;-70
2022/01/02 10:58:13;;;;;;;16.02;8.90;;;;;;;9.40;100.00;100790.75;5072550;28;20446;-70
2022/01/02 11:00:42;;;;;;;16.92;9.25;;;;;;;9.25;100.00;100772.81;5073158;28;20047;-69
2022/01/02 11:03:12;;;;;;;14.07;8.52;;;;;;;9.42;100.00;100765.75;5070574;28;20041;-72
2022/01/02 11:05:41;;;;;;;14.63;8.27;;;;;;;9.45;100.00;100772.72;5072265;28;20127;-70
2022/01/02 11:08:12;;;;;;;15.48;8.48;;;;;;;9.29;100.00;100758.44;5070425;28;20036;-72
2022/01/02 11:10:41;;;;;;;14.00;8.30;;;;;;;9.34;100.00;100762.59;5071863;28;20055;-71
2022/01/02 11:13:10;;;;;;;13.50;7.70;;;;;;;9.25;100.00;100767.47;5071561;28;20037;-72
2022/01/02 11:15:40;;;;;;;13.13;7.95;;;;;;;9.32;100.00;100753.81;5071538;28;20068;-71
2022/01/02 11:18:11;;;;;;;12.95;7.65;;;;;;;9.37;100.00;100749.16;5071607;28;20049;-72
2022/01/02 11:20:40;;;;;;;17.17;8.27;;;;;;;9.40;100.00;100742.81;5072233;28;20060;-72
2022/01/02 11:23:14;;;;;;;11.70;7.28;;;;;;;9.38;100.00;100737.56;5072190;28;20051;-73
2022/01/02 11:25:56;;;;;;;14.55;7.50;;;;;;;9.43;100.00;100740.00;5072707;28;20044;-69
2022/01/02 11:28:34;;;;;;;13.55;6.80;;;;;;;9.50;100.00;100741.44;5072931;28;20051;-70
2022/01/02 11:31:04;;;;;;;12.55;6.85;;;;;;;9.44;100.00;100733.72;5072324;28;20037;-72